sensor_id;sensor_type;location;lat;lon;timestamp;temperature;humidity
55329;DHT22;41205;44.264;19.884;2023-06-01T00:01:09;435.70;2355.20
55329;DHT22;41205;44.264;19.884;2023-06-01T00:03:38;435.80;2355.20
55329;DHT22;41205;44.264;19.884;2023-06-01T00:06:05;435.80;2355.20
55329;DHT22;41205;44.264;19.884;2023-06-01T00:08:31;435.80;2355.20
55329;DHT22;41205;44.264;19.884;2023-06-01T00:10:57;435.70;2355.20
55329;DHT22;41205;44.264;19.884;2023-06-01T00:13:23;435.80;2355.20
55329;DHT22;41205;44.264;19.884;2023-06-01T00:15:49;435.70;2355.20
55329;DHT22;41205;44.264;19.884;2023-06-01T00:18:14;435.70;2355.20
55329;DHT22;41205;44.264;19.884;2023-06-01T00:20:41;435.80;2355.20
55329;DHT22;41205;44.264;19.884;2023-06-01T00:23:07;435.70;2355.20
55329;DHT22;41205;44.264;19.884;2023-06-01T00:25:34;435.60;2355.20
55329;DHT22;41205;44.264;19.884;2023-06-01T00:28:00;435.70;2355.20
55329;DHT22;41205;44.264;19.884;2023-06-01T00:30:28;435.70;2355.20
55329;DHT22;41205;44.264;19.884;2023-06-01T00:32:53;435.70;2355.20
55329;DHT22;41205;44.264;19.884;2023-06-01T00:35:19;435.60;2355.20
55329;DHT22;41205;44.264;19.884;2023-06-01T00:37:45;435.60;2355.20
55329;DHT22;41205;44.264;19.884;2023-06-01T00:40:11;435.50;2355.20
55329;DHT22;41205;44.264;19.884;2023-06-01T00:42:37;435.60;2355.20
55329;DHT22;41205;44.264;19.884;2023-06-01T00:45:03;435.60;2355.20
55329;DHT22;41205;44.264;19.884;2023-06-01T00:47:29;435.60;2355.20
55329;DHT22;41205;44.264;19.884;2023-06-01T00:49:55;435.60;2355.20
55329;DHT22;41205;44.264;19.884;2023-06-01T00:52:21;435.90;2355.20
55329;DHT22;41205;44.264;19.884;2023-06-01T00:54:47;435.60;2355.20
55329;DHT22;41205;44.264;19.884;2023-06-01T00:57:13;435.70;2355.20
55329;DHT22;41205;44.264;19.884;2023-06-01T00:59:39;435.70;1971.20
55329;DHT22;41205;44.264;19.884;2023-06-01T01:02:05;435.80;2355.20
55329;DHT22;41205;44.264;19.884;2023-06-01T01:04:33;435.70;2355.20
55329;DHT22;41205;44.264;19.884;2023-06-01T01:12:30;435.60;2355.20
55329;DHT22;41205;44.264;19.884;2023-06-01T01:14:59;435.90;2355.20
55329;DHT22;41205;44.264;19.884;2023-06-01T01:17:32;435.60;2355.20
55329;DHT22;41205;44.264;19.884;2023-06-01T01:20:01;435.60;2355.20
55329;DHT22;41205;44.264;19.884;2023-06-01T01:31:01;435.50;2355.20
55329;DHT22;41205;44.264;19.884;2023-06-01T01:33:29;435.30;2355.20
55329;DHT22;41205;44.264;19.884;2023-06-01T01:35:56;435.30;2355.20
55329;DHT22;41205;44.264;19.884;2023-06-01T01:38:23;435.40;2355.20
55329;DHT22;41205;44.264;19.884;2023-06-01T01:40:49;435.30;2355.20
55329;DHT22;41205;44.264;19.884;2023-06-01T01:43:21;435.20;2355.20
55329;DHT22;41205;44.264;19.884;2023-06-01T01:45:51;410.50;2355.20
55329;DHT22;41205;44.264;19.884;2023-06-01T01:48:35;410.50;2355.20
55329;DHT22;41205;44.264;19.884;2023-06-01T01:51:14;410.30;2355.20
55329;DHT22;41205;44.264;19.884;2023-06-01T01:53:41;410.40;2355.20
55329;DHT22;41205;44.264;19.884;2023-06-01T01:56:09;410.30;2355.20
55329;DHT22;41205;44.264;19.884;2023-06-01T01:58:35;410.30;2355.20
55329;DHT22;41205;44.264;19.884;2023-06-01T02:01:02;410.30;2355.20
55329;DHT22;41205;44.264;19.884;2023-06-01T02:03:28;410.30;2355.20
55329;DHT22;41205;44.264;19.884;2023-06-01T02:05:54;410.30;2355.20
55329;DHT22;41205;44.264;19.884;2023-06-01T02:08:20;410.40;2355.20
55329;DHT22;41205;44.264;19.884;2023-06-01T02:10:45;410.40;2355.20
55329;DHT22;41205;44.264;19.884;2023-06-01T02:13:11;410.40;2355.20
55329;DHT22;41205;44.264;19.884;2023-06-01T02:15:37;410.50;2355.20
55329;DHT22;41205;44.264;19.884;2023-06-01T02:18:03;410.50;2355.20
55329;DHT22;41205;44.264;19.884;2023-06-01T02:20:29;410.50;2355.20
55329;DHT22;41205;44.264;19.884;2023-06-01T02:22:54;410.50;2355.20
55329;DHT22;41205;44.264;19.884;2023-06-01T02:25:20;410.50;2355.20
55329;DHT22;41205;44.264;19.884;2023-06-01T02:27:46;410.50;2355.20
55329;DHT22;41205;44.264;19.884;2023-06-01T02:30:12;410.50;2355.20
55329;DHT22;41205;44.264;19.884;2023-06-01T02:32:38;410.50;2355.20
55329;DHT22;41205;44.264;19.884;2023-06-01T02:35:04;410.50;2355.20
55329;DHT22;41205;44.264;19.884;2023-06-01T02:37:31;410.40;2355.20
55329;DHT22;41205;44.264;19.884;2023-06-01T02:39:57;410.50;2355.20
55329;DHT22;41205;44.264;19.884;2023-06-01T02:42:23;410.50;2355.20
55329;DHT22;41205;44.264;19.884;2023-06-01T02:44:48;435.20;2355.20
55329;DHT22;41205;44.264;19.884;2023-06-01T02:47:15;435.30;2355.20
55329;DHT22;41205;44.264;19.884;2023-06-01T02:49:42;435.40;2355.20
55329;DHT22;41205;44.264;19.884;2023-06-01T02:52:07;435.50;2355.20
55329;DHT22;41205;44.264;19.884;2023-06-01T02:54:33;435.50;2355.20
55329;DHT22;41205;44.264;19.884;2023-06-01T02:56:59;435.60;2355.20
55329;DHT22;41205;44.264;19.884;2023-06-01T02:59:24;435.60;2355.20
55329;DHT22;41205;44.264;19.884;2023-06-01T03:01:50;435.60;2355.20
55329;DHT22;41205;44.264;19.884;2023-06-01T03:04:16;435.60;2355.20
55329;DHT22;41205;44.264;19.884;2023-06-01T03:06:43;435.60;2355.20
55329;DHT22;41205;44.264;19.884;2023-06-01T03:09:08;435.70;2355.20
55329;DHT22;41205;44.264;19.884;2023-06-01T03:11:41;435.70;2355.20
55329;DHT22;41205;44.264;19.884;2023-06-01T03:14:07;435.70;2355.20
55329;DHT22;41205;44.264;19.884;2023-06-01T03:16:33;435.80;2355.20
55329;DHT22;41205;44.264;19.884;2023-06-01T03:19:00;435.70;2355.20
55329;DHT22;41205;44.264;19.884;2023-06-01T03:21:26;435.70;2355.20
55329;DHT22;41205;44.264;19.884;2023-06-01T03:23:53;435.60;2355.20
55329;DHT22;41205;44.264;19.884;2023-06-01T03:26:18;435.60;2355.20
55329;DHT22;41205;44.264;19.884;2023-06-01T03:28:46;435.60;2355.20
55329;DHT22;41205;44.264;19.884;2023-06-01T03:31:12;435.50;2355.20
55329;DHT22;41205;44.264;19.884;2023-06-01T03:33:38;435.50;2355.20
55329;DHT22;41205;44.264;19.884;2023-06-01T03:36:04;435.60;2355.20
55329;DHT22;41205;44.264;19.884;2023-06-01T03:38:32;435.60;2355.20
55329;DHT22;41205;44.264;19.884;2023-06-01T03:40:58;435.80;2355.20
55329;DHT22;41205;44.264;19.884;2023-06-01T03:43:23;435.80;2355.20
55329;DHT22;41205;44.264;19.884;2023-06-01T03:45:49;435.90;2355.20
55329;DHT22;41205;44.264;19.884;2023-06-01T03:48:15;436.10;2355.20
55329;DHT22;41205;44.264;19.884;2023-06-01T03:50:41;460.80;2380.80
55329;DHT22;41205;44.264;19.884;2023-06-01T03:53:07;460.80;2380.80
55329;DHT22;41205;44.264;19.884;2023-06-01T03:55:32;460.90;2380.80
55329;DHT22;41205;44.264;19.884;2023-06-01T03:58:00;461.00;2380.80
55329;DHT22;41205;44.264;19.884;2023-06-01T04:00:28;461.20;2380.80
55329;DHT22;41205;44.264;19.884;2023-06-01T04:02:56;461.30;2380.80
55329;DHT22;41205;44.264;19.884;2023-06-01T04:05:24;461.30;2380.80
55329;DHT22;41205;44.264;19.884;2023-06-01T04:07:51;461.40;2380.80
55329;DHT22;41205;44.264;19.884;2023-06-01T04:10:17;461.60;2380.80
55329;DHT22;41205;44.264;19.884;2023-06-01T04:12:44;461.40;2380.80
55329;DHT22;41205;44.264;19.884;2023-06-01T04:15:11;461.40;2380.80
55329;DHT22;41205;44.264;19.884;2023-06-01T04:17:38;461.20;2380.80
55329;DHT22;41205;44.264;19.884;2023-06-01T04:20:05;461.20;2380.80
55329;DHT22;41205;44.264;19.884;2023-06-01T04:22:38;461.10;2380.80
55329;DHT22;41205;44.264;19.884;2023-06-01T04:25:09;461.00;2380.80
55329;DHT22;41205;44.264;19.884;2023-06-01T04:27:36;461.20;2380.80
55329;DHT22;41205;44.264;19.884;2023-06-01T04:30:06;461.10;2380.80
55329;DHT22;41205;44.264;19.884;2023-06-01T04:32:35;461.20;2380.80
55329;DHT22;41205;44.264;19.884;2023-06-01T04:35:04;461.30;2380.80
55329;DHT22;41205;44.264;19.884;2023-06-01T04:37:37;461.30;2380.80
55329;DHT22;41205;44.264;19.884;2023-06-01T04:40:05;461.50;2380.80
55329;DHT22;41205;44.264;19.884;2023-06-01T04:42:40;461.50;2380.80
55329;DHT22;41205;44.264;19.884;2023-06-01T04:45:07;461.70;2380.80
55329;DHT22;41205;44.264;19.884;2023-06-01T04:47:35;486.40;2380.80
55329;DHT22;41205;44.264;19.884;2023-06-01T04:50:09;486.50;2380.80
55329;DHT22;41205;44.264;19.884;2023-06-01T04:52:40;486.60;2380.80
55329;DHT22;41205;44.264;19.884;2023-06-01T04:55:06;486.60;2380.80
55329;DHT22;41205;44.264;19.884;2023-06-01T04:57:33;486.70;2380.80
55329;DHT22;41205;44.264;19.884;2023-06-01T04:59:59;486.80;2380.80
55329;DHT22;41205;44.264;19.884;2023-06-01T05:02:26;487.00;2380.80
55329;DHT22;41205;44.264;19.884;2023-06-01T05:04:52;487.00;2380.80
55329;DHT22;41205;44.264;19.884;2023-06-01T05:07:18;487.10;2380.80
55329;DHT22;41205;44.264;19.884;2023-06-01T05:09:43;487.30;2380.80
55329;DHT22;41205;44.264;19.884;2023-06-01T05:12:09;512.20;2380.80
55329;DHT22;41205;44.264;19.884;2023-06-01T05:14:35;512.50;2380.80
55329;DHT22;41205;44.264;19.884;2023-06-01T05:17:01;537.60;2406.40
55329;DHT22;41205;44.264;19.884;2023-06-01T05:19:26;538.50;2406.40
55329;DHT22;41205;44.264;19.884;2023-06-01T05:21:52;564.10;2432.00
55329;DHT22;41205;44.264;19.884;2023-06-01T05:24:18;640.10;2432.00
55329;DHT22;41205;44.264;19.884;2023-06-01T05:26:44;640.70;2432.00
55329;DHT22;41205;44.264;19.884;2023-06-01T05:29:11;665.90;2432.00
55329;DHT22;41205;44.264;19.884;2023-06-01T05:31:36;691.70;2432.00
55329;DHT22;41205;44.264;19.884;2023-06-01T05:34:02;794.00;2022.40
55329;DHT22;41205;44.264;19.884;2023-06-01T05:36:28;794.20;1971.20
55329;DHT22;41205;44.264;19.884;2023-06-01T05:38:54;793.60;1971.20
55329;DHT22;41205;44.264;19.884;2023-06-01T05:41:19;768.60;1971.20
55329;DHT22;41205;44.264;19.884;2023-06-01T05:43:45;768.00;1996.80
55329;DHT22;41205;44.264;19.884;2023-06-01T05:46:11;743.20;2022.40
55329;DHT22;41205;44.264;19.884;2023-06-01T05:48:36;819.20;1894.40
55329;DHT22;41205;44.264;19.884;2023-06-01T05:51:02;794.10;1894.40
55329;DHT22;41205;44.264;19.884;2023-06-01T05:53:28;768.40;1945.60
55329;DHT22;41205;44.264;19.884;2023-06-01T05:55:55;743.20;1996.80
55329;DHT22;41205;44.264;19.884;2023-06-01T05:58:20;742.90;2022.40
55329;DHT22;41205;44.264;19.884;2023-06-01T06:00:46;742.40;2073.60
55329;DHT22;41205;44.264;19.884;2023-06-01T06:03:12;742.70;2048.00
55329;DHT22;41205;44.264;19.884;2023-06-01T06:05:38;742.90;2073.60
55329;DHT22;41205;44.264;19.884;2023-06-01T06:08:04;742.50;2099.20
55329;DHT22;41205;44.264;19.884;2023-06-01T06:10:29;717.60;2099.20
55329;DHT22;41205;44.264;19.884;2023-06-01T06:12:55;768.80;1971.20
55329;DHT22;41205;44.264;19.884;2023-06-01T06:15:21;794.20;1920.00
55329;DHT22;41205;44.264;19.884;2023-06-01T06:17:46;768.50;1920.00
55329;DHT22;41205;44.264;19.884;2023-06-01T06:20:12;742.50;2048.00
55329;DHT22;41205;44.264;19.884;2023-06-01T06:22:41;742.80;2048.00
55329;DHT22;41205;44.264;19.884;2023-06-01T06:25:07;742.80;2048.00
55329;DHT22;41205;44.264;19.884;2023-06-01T06:27:34;742.90;2048.00
55329;DHT22;41205;44.264;19.884;2023-06-01T06:30:00;717.70;2073.60
55329;DHT22;41205;44.264;19.884;2023-06-01T07:16:19;845.30;1817.60
55329;DHT22;41205;44.264;19.884;2023-06-01T07:18:44;871.10;1715.20
55329;DHT22;41205;44.264;19.884;2023-06-01T07:26:02;871.10;1638.40
55329;DHT22;41205;44.264;19.884;2023-06-01T07:33:20;973.70;1459.20
55329;DHT22;41205;44.264;19.884;2023-06-01T07:35:48;922.50;1484.80
55329;DHT22;41205;44.264;19.884;2023-06-01T07:40:44;896.30;1587.20
55329;DHT22;41205;44.264;19.884;2023-06-01T07:43:10;922.40;1484.80
55329;DHT22;41205;44.264;19.884;2023-06-01T07:45:36;972.90;1408.00
55329;DHT22;41205;44.264;19.884;2023-06-01T07:48:01;972.80;1433.60
55329;DHT22;41205;44.264;19.884;2023-06-01T07:50:27;973.50;1433.60
55329;DHT22;41205;44.264;19.884;2023-06-01T07:52:57;998.70;1408.00
55329;DHT22;41205;44.264;19.884;2023-06-01T07:57:49;972.90;1408.00
55329;DHT22;41205;44.264;19.884;2023-06-01T08:00:16;972.90;1433.60
55329;DHT22;41205;44.264;19.884;2023-06-01T08:02:43;1024.20;1331.20
55329;DHT22;41205;44.264;19.884;2023-06-01T08:05:09;998.50;1356.80
55329;DHT22;41205;44.264;19.884;2023-06-01T08:07:37;998.80;1408.00
55329;DHT22;41205;44.264;19.884;2023-06-01T08:10:06;999.20;1356.80
55329;DHT22;41205;44.264;19.884;2023-06-01T08:12:34;973.60;1382.40
55329;DHT22;41205;44.264;19.884;2023-06-01T08:15:01;972.80;1408.00
55329;DHT22;41205;44.264;19.884;2023-06-01T08:17:27;921.60;1510.40
55329;DHT22;41205;44.264;19.884;2023-06-01T08:19:53;870.70;1561.60
55329;DHT22;41205;44.264;19.884;2023-06-01T08:22:20;845.60;1612.80
55329;DHT22;41205;44.264;19.884;2023-06-01T08:24:46;820.10;1612.80
55329;DHT22;41205;44.264;19.884;2023-06-01T08:27:22;819.70;1664.00
55329;DHT22;41205;44.264;19.884;2023-06-01T08:29:49;794.50;1740.80
55329;DHT22;41205;44.264;19.884;2023-06-01T08:37:14;794.20;1740.80
55329;DHT22;41205;44.264;19.884;2023-06-01T08:39:40;793.60;1792.00
55329;DHT22;41205;44.264;19.884;2023-06-01T08:42:29;743.30;1766.40
55329;DHT22;41205;44.264;19.884;2023-06-01T08:44:57;742.90;1817.60
55329;DHT22;41205;44.264;19.884;2023-06-01T08:47:26;768.10;1843.20
55329;DHT22;41205;44.264;19.884;2023-06-01T08:49:53;743.10;1792.00
55329;DHT22;41205;44.264;19.884;2023-06-01T08:52:20;717.20;1843.20
55329;DHT22;41205;44.264;19.884;2023-06-01T08:54:46;717.00;1894.40
55329;DHT22;41205;44.264;19.884;2023-06-01T08:57:12;716.90;1868.80
55329;DHT22;41205;44.264;19.884;2023-06-01T08:59:39;717.10;1868.80
55329;DHT22;41205;44.264;19.884;2023-06-01T09:02:05;717.00;1894.40
55329;DHT22;41205;44.264;19.884;2023-06-01T09:04:35;717.40;1920.00
55329;DHT22;41205;44.264;19.884;2023-06-01T09:07:03;717.60;1868.80
55329;DHT22;41205;44.264;19.884;2023-06-01T09:09:28;742.50;1920.00
55329;DHT22;41205;44.264;19.884;2023-06-01T09:12:17;742.50;1868.80
55329;DHT22;41205;44.264;19.884;2023-06-01T09:14:43;742.50;1843.20
55329;DHT22;41205;44.264;19.884;2023-06-01T09:17:21;742.40;1843.20
55329;DHT22;41205;44.264;19.884;2023-06-01T09:19:49;742.90;1868.80
55329;DHT22;41205;44.264;19.884;2023-06-01T09:22:15;743.20;1868.80
55329;DHT22;41205;44.264;19.884;2023-06-01T09:24:41;743.10;1843.20
55329;DHT22;41205;44.264;19.884;2023-06-01T09:27:19;743.10;1817.60
55329;DHT22;41205;44.264;19.884;2023-06-01T09:29:53;743.20;1843.20
55329;DHT22;41205;44.264;19.884;2023-06-01T09:32:19;742.40;1843.20
55329;DHT22;41205;44.264;19.884;2023-06-01T09:34:48;742.60;1843.20
55329;DHT22;41205;44.264;19.884;2023-06-01T09:37:14;742.90;1843.20
55329;DHT22;41205;44.264;19.884;2023-06-01T09:39:40;742.50;1843.20
55329;DHT22;41205;44.264;19.884;2023-06-01T09:42:07;717.70;1817.60
55329;DHT22;41205;44.264;19.884;2023-06-01T09:44:37;717.50;1843.20
55329;DHT22;41205;44.264;19.884;2023-06-01T09:47:05;742.60;1843.20
55329;DHT22;41205;44.264;19.884;2023-06-01T09:49:36;742.60;1817.60
55329;DHT22;41205;44.264;19.884;2023-06-01T09:54:33;743.10;1843.20
55329;DHT22;41205;44.264;19.884;2023-06-01T09:57:01;742.60;1843.20
55329;DHT22;41205;44.264;19.884;2023-06-01T09:59:28;742.80;1843.20
55329;DHT22;41205;44.264;19.884;2023-06-01T10:01:56;743.10;1843.20
55329;DHT22;41205;44.264;19.884;2023-06-01T10:04:24;743.00;1843.20
55329;DHT22;41205;44.264;19.884;2023-06-01T10:06:55;743.20;1843.20
55329;DHT22;41205;44.264;19.884;2023-06-01T10:09:22;743.10;1817.60
55329;DHT22;41205;44.264;19.884;2023-06-01T10:11:49;743.20;1817.60
55329;DHT22;41205;44.264;19.884;2023-06-01T10:14:16;743.30;1868.80
55329;DHT22;41205;44.264;19.884;2023-06-01T10:16:43;743.10;1792.00
55329;DHT22;41205;44.264;19.884;2023-06-01T10:19:10;742.60;1920.00
55329;DHT22;41205;44.264;19.884;2023-06-01T10:21:36;742.70;1920.00
55329;DHT22;41205;44.264;19.884;2023-06-01T10:24:06;742.50;1945.60
55329;DHT22;41205;44.264;19.884;2023-06-01T10:27:01;742.70;1868.80
55329;DHT22;41205;44.264;19.884;2023-06-01T10:29:31;742.40;1920.00
55329;DHT22;41205;44.264;19.884;2023-06-01T10:31:57;717.40;1920.00
55329;DHT22;41205;44.264;19.884;2023-06-01T10:34:41;717.10;1971.20
55329;DHT22;41205;44.264;19.884;2023-06-01T10:39:34;716.80;1996.80
55329;DHT22;41205;44.264;19.884;2023-06-01T10:52:29;691.90;2022.40
55329;DHT22;41205;44.264;19.884;2023-06-01T10:57:42;691.70;1996.80
55329;DHT22;41205;44.264;19.884;2023-06-01T11:00:24;691.30;2022.40
55329;DHT22;41205;44.264;19.884;2023-06-01T11:03:01;691.30;2048.00
55329;DHT22;41205;44.264;19.884;2023-06-01T11:05:49;666.50;2073.60
55329;DHT22;41205;44.264;19.884;2023-06-01T11:13:30;666.00;2176.00
55329;DHT22;41205;44.264;19.884;2023-06-01T11:19:00;665.70;2099.20
55329;DHT22;41205;44.264;19.884;2023-06-01T11:21:32;665.60;2099.20
55329;DHT22;41205;44.264;19.884;2023-06-01T11:24:00;665.60;2150.40
55329;DHT22;41205;44.264;19.884;2023-06-01T11:26:52;665.60;2176.00
55329;DHT22;41205;44.264;19.884;2023-06-01T11:29:22;640.90;2176.00
55329;DHT22;41205;44.264;19.884;2023-06-01T11:31:56;640.90;2176.00
55329;DHT22;41205;44.264;19.884;2023-06-01T11:34:36;640.90;2278.40
55329;DHT22;41205;44.264;19.884;2023-06-01T11:37:14;640.60;2355.20
55329;DHT22;41205;44.264;19.884;2023-06-01T11:39:40;640.60;2432.00
55329;DHT22;41205;44.264;19.884;2023-06-01T11:42:13;640.50;2432.00
55329;DHT22;41205;44.264;19.884;2023-06-01T11:44:41;640.50;2432.00
55329;DHT22;41205;44.264;19.884;2023-06-01T15:48:14;640.20;2432.00
55329;DHT22;41205;44.264;19.884;2023-06-01T15:50:40;640.10;2432.00
55329;DHT22;41205;44.264;19.884;2023-06-01T15:57:57;615.20;2432.00
55329;DHT22;41205;44.264;19.884;2023-06-01T16:00:23;614.90;2432.00
55329;DHT22;41205;44.264;19.884;2023-06-01T16:02:49;614.90;2432.00
55329;DHT22;41205;44.264;19.884;2023-06-01T16:05:14;614.80;2432.00
55329;DHT22;41205;44.264;19.884;2023-06-01T16:07:40;614.80;2432.00
55329;DHT22;41205;44.264;19.884;2023-06-01T16:10:06;614.80;2432.00
55329;DHT22;41205;44.264;19.884;2023-06-01T16:12:32;614.60;2432.00
55329;DHT22;41205;44.264;19.884;2023-06-01T16:14:58;614.70;2432.00
55329;DHT22;41205;44.264;19.884;2023-06-01T16:17:23;614.70;2432.00
55329;DHT22;41205;44.264;19.884;2023-06-01T16:19:49;614.60;2432.00
55329;DHT22;41205;44.264;19.884;2023-06-01T16:22:15;614.70;2432.00
55329;DHT22;41205;44.264;19.884;2023-06-01T16:24:40;614.70;2432.00
55329;DHT22;41205;44.264;19.884;2023-06-01T16:27:06;614.60;2432.00
55329;DHT22;41205;44.264;19.884;2023-06-01T16:29:33;614.70;2432.00
55329;DHT22;41205;44.264;19.884;2023-06-01T16:31:58;614.60;2432.00
55329;DHT22;41205;44.264;19.884;2023-06-01T16:34:24;614.50;2432.00
55329;DHT22;41205;44.264;19.884;2023-06-01T16:36:50;589.70;2432.00
55329;DHT22;41205;44.264;19.884;2023-06-01T16:39:16;614.40;2432.00
55329;DHT22;41205;44.264;19.884;2023-06-01T16:41:41;589.70;2432.00
55329;DHT22;41205;44.264;19.884;2023-06-01T16:44:07;589.70;2432.00
55329;DHT22;41205;44.264;19.884;2023-06-01T16:46:33;589.60;2432.00
55329;DHT22;41205;44.264;19.884;2023-06-01T16:48:58;589.40;2432.00
55329;DHT22;41205;44.264;19.884;2023-06-01T16:51:24;589.20;2432.00
55329;DHT22;41205;44.264;19.884;2023-06-01T16:53:50;589.00;2432.00
55329;DHT22;41205;44.264;19.884;2023-06-01T16:56:16;588.90;2432.00
55329;DHT22;41205;44.264;19.884;2023-06-01T16:58:42;589.00;2432.00
55329;DHT22;41205;44.264;19.884;2023-06-01T17:01:08;588.90;2432.00
55329;DHT22;41205;44.264;19.884;2023-06-01T17:03:34;588.90;2432.00
55329;DHT22;41205;44.264;19.884;2023-06-01T17:05:59;588.80;2432.00
55329;DHT22;41205;44.264;19.884;2023-06-01T17:08:25;564.10;2432.00
55329;DHT22;41205;44.264;19.884;2023-06-01T17:10:51;564.10;2432.00
55329;DHT22;41205;44.264;19.884;2023-06-01T17:13:17;564.00;2432.00
55329;DHT22;41205;44.264;19.884;2023-06-01T17:15:42;564.00;2432.00
55329;DHT22;41205;44.264;19.884;2023-06-01T17:18:08;563.70;2432.00
55329;DHT22;41205;44.264;19.884;2023-06-01T17:20:36;563.80;2432.00
55329;DHT22;41205;44.264;19.884;2023-06-01T17:23:02;563.80;2432.00
55329;DHT22;41205;44.264;19.884;2023-06-01T17:25:28;563.80;2432.00
55329;DHT22;41205;44.264;19.884;2023-06-01T17:30:20;563.60;2432.00
55329;DHT22;41205;44.264;19.884;2023-06-01T17:32:45;563.70;2432.00
55329;DHT22;41205;44.264;19.884;2023-06-01T17:35:11;563.60;2432.00
55329;DHT22;41205;44.264;19.884;2023-06-01T17:37:37;563.60;2432.00
55329;DHT22;41205;44.264;19.884;2023-06-01T17:40:03;563.60;2432.00
55329;DHT22;41205;44.264;19.884;2023-06-01T17:42:29;563.50;2432.00
55329;DHT22;41205;44.264;19.884;2023-06-01T17:49:47;538.40;2406.40
55329;DHT22;41205;44.264;19.884;2023-06-01T18:21:25;538.00;2406.40
55329;DHT22;41205;44.264;19.884;2023-06-01T18:23:51;537.80;2406.40
55329;DHT22;41205;44.264;19.884;2023-06-01T18:26:17;537.60;2406.40
55329;DHT22;41205;44.264;19.884;2023-06-01T18:28:43;537.60;2406.40
55329;DHT22;41205;44.264;19.884;2023-06-01T18:31:09;537.60;2406.40
55329;DHT22;41205;44.264;19.884;2023-06-01T18:33:35;512.90;2380.80
55329;DHT22;41205;44.264;19.884;2023-06-01T18:36:00;537.60;2406.40
55329;DHT22;41205;44.264;19.884;2023-06-01T18:38:27;537.60;2406.40
55329;DHT22;41205;44.264;19.884;2023-06-01T18:40:53;537.60;2406.40
55329;DHT22;41205;44.264;19.884;2023-06-01T18:43:20;537.60;2406.40
55329;DHT22;41205;44.264;19.884;2023-06-01T18:45:45;512.90;2380.80
55329;DHT22;41205;44.264;19.884;2023-06-01T18:48:11;512.90;2380.80
55329;DHT22;41205;44.264;19.884;2023-06-01T18:50:37;512.90;2380.80
55329;DHT22;41205;44.264;19.884;2023-06-01T18:53:03;537.60;2406.40
55329;DHT22;41205;44.264;19.884;2023-06-01T18:55:28;537.60;2406.40
55329;DHT22;41205;44.264;19.884;2023-06-01T18:57:54;537.70;2406.40
55329;DHT22;41205;44.264;19.884;2023-06-01T19:00:20;512.90;2380.80
55329;DHT22;41205;44.264;19.884;2023-06-01T19:02:47;537.60;2406.40
55329;DHT22;41205;44.264;19.884;2023-06-01T19:05:16;537.70;2406.40
55329;DHT22;41205;44.264;19.884;2023-06-01T19:07:44;537.70;2406.40
55329;DHT22;41205;44.264;19.884;2023-06-01T19:10:10;537.80;2406.40
55329;DHT22;41205;44.264;19.884;2023-06-01T19:12:36;537.80;2406.40
55329;DHT22;41205;44.264;19.884;2023-06-01T19:15:09;537.70;2406.40
55329;DHT22;41205;44.264;19.884;2023-06-01T19:17:36;537.70;2406.40
55329;DHT22;41205;44.264;19.884;2023-06-01T19:20:04;537.70;2406.40
55329;DHT22;41205;44.264;19.884;2023-06-01T19:22:31;537.70;2406.40
55329;DHT22;41205;44.264;19.884;2023-06-01T19:25:00;537.70;2406.40
55329;DHT22;41205;44.264;19.884;2023-06-01T19:27:26;537.70;2406.40
55329;DHT22;41205;44.264;19.884;2023-06-01T19:29:53;537.70;2406.40
55329;DHT22;41205;44.264;19.884;2023-06-01T19:32:19;537.70;2406.40
55329;DHT22;41205;44.264;19.884;2023-06-01T19:34:45;537.60;2406.40
55329;DHT22;41205;44.264;19.884;2023-06-01T19:37:11;512.90;2380.80
55329;DHT22;41205;44.264;19.884;2023-06-01T19:39:41;512.70;2380.80
55329;DHT22;41205;44.264;19.884;2023-06-01T19:44:41;512.20;2380.80
55329;DHT22;41205;44.264;19.884;2023-06-01T19:47:08;512.40;2380.80
55329;DHT22;41205;44.264;19.884;2023-06-01T19:49:39;512.30;2380.80
55329;DHT22;41205;44.264;19.884;2023-06-01T19:52:10;512.40;2380.80
55329;DHT22;41205;44.264;19.884;2023-06-01T19:54:36;512.50;2380.80
55329;DHT22;41205;44.264;19.884;2023-06-01T19:57:03;512.50;2380.80
55329;DHT22;41205;44.264;19.884;2023-06-01T19:59:29;512.30;2380.80
55329;DHT22;41205;44.264;19.884;2023-06-01T20:01:57;512.40;2380.80
55329;DHT22;41205;44.264;19.884;2023-06-01T20:04:24;512.30;2380.80
55329;DHT22;41205;44.264;19.884;2023-06-01T20:06:52;512.40;2380.80
55329;DHT22;41205;44.264;19.884;2023-06-01T20:09:20;512.30;2380.80
55329;DHT22;41205;44.264;19.884;2023-06-01T20:11:51;512.30;2380.80
55329;DHT22;41205;44.264;19.884;2023-06-01T20:14:29;512.30;2380.80
55329;DHT22;41205;44.264;19.884;2023-06-01T20:16:56;512.30;2380.80
55329;DHT22;41205;44.264;19.884;2023-06-01T20:19:22;512.30;2380.80
55329;DHT22;41205;44.264;19.884;2023-06-01T20:21:56;512.30;2380.80
55329;DHT22;41205;44.264;19.884;2023-06-01T20:24:27;512.30;2380.80
55329;DHT22;41205;44.264;19.884;2023-06-01T20:27:01;512.30;2380.80
55329;DHT22;41205;44.264;19.884;2023-06-01T20:29:29;512.30;2380.80
55329;DHT22;41205;44.264;19.884;2023-06-01T20:31:58;512.30;2380.80
55329;DHT22;41205;44.264;19.884;2023-06-01T20:34:25;512.20;2380.80
55329;DHT22;41205;44.264;19.884;2023-06-01T20:36:51;512.10;2380.80
55329;DHT22;41205;44.264;19.884;2023-06-01T20:39:18;512.00;2380.80
55329;DHT22;41205;44.264;19.884;2023-06-01T20:41:44;512.00;2380.80
55329;DHT22;41205;44.264;19.884;2023-06-01T20:44:15;512.00;2380.80
55329;DHT22;41205;44.264;19.884;2023-06-01T20:46:41;487.30;2380.80
55329;DHT22;41205;44.264;19.884;2023-06-01T20:49:08;487.20;2022.40
55329;DHT22;41205;44.264;19.884;2023-06-01T20:51:36;487.20;2380.80
55329;DHT22;41205;44.264;19.884;2023-06-01T20:56:36;487.20;2380.80
55329;DHT22;41205;44.264;19.884;2023-06-01T20:59:06;487.10;2380.80
55329;DHT22;41205;44.264;19.884;2023-06-01T21:01:33;487.00;2380.80
55329;DHT22;41205;44.264;19.884;2023-06-01T21:04:04;486.90;2380.80
55329;DHT22;41205;44.264;19.884;2023-06-01T21:06:30;487.00;2380.80
55329;DHT22;41205;44.264;19.884;2023-06-01T21:08:57;487.00;2380.80